Time;durP1;ratioP1;P1;durP2;ratioP2;P2;SDS_P1;SDS_P2;PMS_P1;PMS_P2;Temp;Humidity;BMP_temperature;BMP_pressure;BME280_temperature;BME280_humidity;BME280_pressure;Samples;Min_cycle;Max_cycle;Signal;HPM_P1;HPM_P2
2023/07/02 00:00:52;;;;;;;3.55;1.13;;;;;;;17.16;62.59;99159.41;10386612;28;20037;-60
2023/07/02 00:05:56;;;;;;;2.35;1.25;;;;;;;17.05;62.65;99162.31;10391597;28;20408;-60
2023/07/02 00:10:58;;;;;;;4.40;1.10;;;;;;;16.92;62.28;99162.69;10390943;28;20103;-60
2023/07/02 00:16:00;;;;;;;1.48;1.00;;;;;;;16.77;62.07;99174.72;10386932;28;20054;-60
2023/07/02 00:21:03;;;;;;;2.78;1.05;;;;;;;16.69;61.80;99173.84;10386987;28;20076;-60
2023/07/02 00:26:05;;;;;;;1.60;0.90;;;;;;;16.79;61.57;99187.81;10390176;28;20139;-59
2023/07/02 00:31:08;;;;;;;4.05;1.13;;;;;;;16.87;61.44;99185.25;10387275;28;20058;-60
2023/07/02 00:36:16;;;;;;;1.77;1.20;;;;;;;16.88;61.15;99193.00;10387332;28;20045;-60
2023/07/02 00:41:18;;;;;;;2.10;1.20;;;;;;;16.71;61.34;99193.00;10389372;28;20053;-60
2023/07/02 00:46:22;;;;;;;3.75;1.15;;;;;;;16.69;61.49;99195.75;10387667;28;20049;-60
2023/07/02 00:51:26;;;;;;;2.60;0.95;;;;;;;16.80;61.44;99198.22;10386506;28;21481;-60
2023/07/02 00:56:29;;;;;;;2.65;1.10;;;;;;;16.84;60.92;99186.38;10388365;28;20042;-60
2023/07/02 01:01:33;;;;;;;1.38;1.00;;;;;;;16.76;60.98;99185.44;10388036;28;20052;-60
2023/07/02 01:06:40;;;;;;;1.30;1.20;;;;;;;16.73;61.05;99176.00;10386262;28;20085;-60
2023/07/02 01:11:50;;;;;;;1.90;1.33;;;;;;;16.61;60.96;99182.47;10385231;28;20046;-60
2023/07/02 01:16:54;;;;;;;1.95;1.10;;;;;;;16.69;61.02;99177.28;10386078;28;20154;-60
2023/07/02 01:21:56;;;;;;;3.30;1.08;;;;;;;16.72;61.25;99179.63;10403592;28;20054;-60
2023/07/02 01:27:01;;;;;;;2.70;1.08;;;;;;;16.71;61.11;99177.16;10369871;28;20041;-60
2023/07/02 01:32:03;;;;;;;2.33;1.20;;;;;;;16.59;60.91;99165.16;10386906;28;20049;-60
2023/07/02 01:37:06;;;;;;;2.08;1.10;;;;;;;16.42;61.52;99177.28;10385203;28;20046;-60
2023/07/02 01:42:16;;;;;;;1.83;1.20;;;;;;;16.31;61.67;99171.34;10382812;28;20038;-60
2023/07/02 01:47:19;;;;;;;1.65;1.10;;;;;;;16.16;61.93;99171.81;10385028;28;20419;-60
2023/07/02 01:52:22;;;;;;;2.60;1.30;;;;;;;16.00;62.26;99176.03;10384239;28;20045;-60
2023/07/02 01:57:24;;;;;;;1.30;1.17;;;;;;;15.86;62.32;99177.34;10386465;28;20041;-60
2023/07/02 02:02:26;;;;;;;1.38;1.00;;;;;;;15.71;62.72;99181.44;10371396;28;20081;-60
2023/07/02 02:07:28;;;;;;;2.47;1.20;;;;;;;15.52;63.06;99194.63;10374653;28;20048;-59
2023/07/02 02:12:31;;;;;;;1.63;1.13;;;;;;;15.45;63.21;99193.47;10392974;28;20444;-60
2023/07/02 02:17:35;;;;;;;1.75;1.00;;;;;;;15.43;63.01;99200.69;10390959;28;20053;-60
2023/07/02 02:22:37;;;;;;;2.03;1.10;;;;;;;15.32;63.23;99204.31;10374723;28;20056;-59
2023/07/02 02:27:39;;;;;;;2.78;1.23;;;;;;;15.25;62.96;99197.09;10390612;28;20501;-59
2023/07/02 02:32:43;;;;;;;2.50;1.27;;;;;;;15.14;63.07;99194.63;10389024;28;20595;-60
2023/07/02 02:37:46;;;;;;;2.72;1.27;;;;;;;15.08;62.94;99201.25;10373423;28;20146;-60
2023/07/02 02:42:48;;;;;;;2.70;1.50;;;;;;;15.00;63.07;99203.72;10405227;28;20479;-60
2023/07/02 02:47:50;;;;;;;3.30;1.60;;;;;;;14.90;62.89;99202.09;10388345;28;20667;-59
2023/07/02 02:52:52;;;;;;;2.38;1.40;;;;;;;14.91;62.55;99199.31;10390523;28;20556;-59
2023/07/02 02:57:54;;;;;;;3.55;1.42;;;;;;;14.98;62.21;99200.41;10359848;28;20092;-60
2023/07/02 03:02:57;;;;;;;2.85;1.45;;;;;;;15.03;61.92;99192.94;10387693;28;20418;-60
2023/07/02 03:08:00;;;;;;;3.88;1.73;;;;;;;14.96;61.58;99196.28;10383723;28;20080;-60
2023/07/02 03:13:02;;;;;;;4.75;2.13;;;;;;;14.89;61.01;99193.34;10382440;28;20072;-60
2023/07/02 03:18:04;;;;;;;3.20;1.73;;;;;;;14.78;61.48;99196.09;10383771;28;20050;-60
2023/07/02 03:23:06;;;;;;;5.10;2.10;;;;;;;14.88;60.90;99199.56;10382799;28;20055;-60
2023/07/02 03:28:08;;;;;;;8.93;2.13;;;;;;;15.00;60.60;99205.56;10385084;28;20049;-60
2023/07/02 03:33:10;;;;;;;5.95;2.22;;;;;;;14.98;60.55;99210.13;10393831;28;20494;-60
2023/07/02 03:38:12;;;;;;;3.88;1.80;;;;;;;14.92;60.02;99221.22;10393806;28;20067;-60
2023/07/02 03:43:14;;;;;;;6.05;2.28;;;;;;;14.89;60.08;99222.31;10389015;28;20141;-60
2023/07/02 03:48:16;;;;;;;4.53;2.08;;;;;;;15.10;59.72;99212.47;10391965;28;20050;-60
2023/07/02 03:53:18;;;;;;;4.45;2.08;;;;;;;15.13;59.51;99216.63;10390144;28;20453;-59
2023/07/02 03:58:20;;;;;;;7.10;2.35;;;;;;;15.13;59.53;99208.75;10390029;28;20467;-59
2023/07/02 04:03:22;;;;;;;7.13;2.50;;;;;;;15.13;59.40;99229.81;10391853;28;20586;-60
2023/07/02 04:08:27;;;;;;;5.18;2.15;;;;;;;15.26;58.86;99233.03;10391264;28;20065;-60
2023/07/02 04:13:30;;;;;;;7.55;2.30;;;;;;;15.36;58.92;99241.75;10388432;28;20084;-60
2023/07/02 04:18:32;;;;;;;8.07;2.60;;;;;;;15.31;58.59;99238.69;10389075;28;20097;-60
2023/07/02 04:23:34;;;;;;;7.78;2.33;;;;;;;15.37;58.85;99238.97;10390120;28;20363;-60
2023/07/02 04:28:36;;;;;;;9.52;2.88;;;;;;;15.47;58.36;99267.16;10389418;28;20418;-59
2023/07/02 04:33:39;;;;;;;8.75;3.08;;;;;;;15.46;58.21;99266.31;10388429;28;20509;-60
2023/07/02 04:38:41;;;;;;;6.40;2.80;;;;;;;15.60;58.03;99276.47;10386311;28;20053;-60
2023/07/02 04:43:45;;;;;;;6.47;3.15;;;;;;;15.57;57.95;99279.38;10387717;28;20486;-60
2023/07/02 04:48:47;;;;;;;6.68;3.05;;;;;;;15.63;57.71;99284.09;10386988;28;20076;-60
2023/07/02 04:53:49;;;;;;;9.32;3.25;;;;;;;15.90;57.22;99284.22;10388451;28;20469;-60
2023/07/02 04:58:51;;;;;;;7.15;3.30;;;;;;;16.01;57.19;99291.13;10389983;28;20057;-60
2023/07/02 05:03:53;;;;;;;8.07;2.95;;;;;;;16.13;56.56;99285.56;10384533;28;20049;-60
2023/07/02 05:08:55;;;;;;;7.63;3.10;;;;;;;16.37;56.39;99290.34;10385643;28;20176;-59
2023/07/02 05:13:57;;;;;;;6.95;3.13;;;;;;;16.57;55.70;99294.63;10385147;28;20044;-60
2023/07/02 05:18:59;;;;;;;7.25;3.17;;;;;;;16.85;55.15;99298.13;10387597;28;20717;-60
2023/07/02 05:24:01;;;;;;;7.43;3.03;;;;;;;16.99;54.96;99309.03;10388243;28;20777;-60
2023/07/02 05:29:03;;;;;;;9.02;3.10;;;;;;;17.45;54.33;99309.88;10389637;28;20152;-59
2023/07/02 05:34:05;;;;;;;7.57;3.15;;;;;;;17.75;53.08;99304.25;10387935;28;20045;-60
2023/07/02 05:39:07;;;;;;;9.75;3.10;;;;;;;17.90;53.11;99307.16;10388695;28;20045;-59
2023/07/02 05:44:09;;;;;;;9.88;3.58;;;;;;;18.37;52.15;99308.53;10382237;28;20041;-60
2023/07/02 05:49:11;;;;;;;9.40;3.58;;;;;;;18.38;51.29;99311.00;10381939;28;20049;-60
2023/07/02 05:54:13;;;;;;;7.45;2.97;;;;;;;18.99;51.09;99318.78;10368035;28;20084;-59
2023/07/02 05:59:17;;;;;;;11.25;3.85;;;;;;;19.27;50.62;99317.59;10383858;28;20046;-60
2023/07/02 06:04:19;;;;;;;9.88;3.55;;;;;;;19.60;49.79;99325.63;10374972;28;20428;-60
2023/07/02 06:09:22;;;;;;;9.32;3.45;;;;;;;19.62;49.71;99328.94;10381056;28;20041;-60
2023/07/02 06:14:25;;;;;;;9.15;3.30;;;;;;;19.38;49.70;99346.47;10378573;28;20065;-60
2023/07/02 06:19:27;;;;;;;8.63;3.72;;;;;;;19.30;49.60;99335.84;10381203;28;20131;-60
2023/07/02 06:24:29;;;;;;;9.38;3.55;;;;;;;19.34;49.48;99355.72;10376075;28;20049;-60
2023/07/02 06:29:31;;;;;;;11.25;3.60;;;;;;;20.00;48.49;99341.63;10377105;28;20045;-60
2023/07/02 06:34:33;;;;;;;8.52;4.03;;;;;;;20.97;47.03;99342.31;10392852;28;20503;-61
2023/07/02 06:39:35;;;;;;;9.00;3.72;;;;;;;21.98;45.10;99343.09;10379662;28;20054;-60
2023/07/02 06:44:37;;;;;;;9.27;3.78;;;;;;;22.43;44.42;99330.56;10379953;28;20141;-61
2023/07/02 06:49:39;;;;;;;9.60;3.65;;;;;;;22.91;43.40;99323.91;10357008;28;20563;-60
2023/07/02 06:54:41;;;;;;;7.18;3.70;;;;;;;22.82;42.47;99338.34;10371905;28;20185;-61
2023/07/02 06:59:44;;;;;;;7.80;3.42;;;;;;;22.97;42.91;99351.66;10374892;28;20175;-60
2023/07/02 07:04:49;;;;;;;6.38;3.22;;;;;;;22.42;43.21;99357.38;10381492;28;20046;-61
2023/07/02 07:09:52;;;;;;;11.80;3.45;;;;;;;21.83;43.98;99359.00;10380587;28;20084;-61
2023/07/02 07:14:54;;;;;;;11.15;3.63;;;;;;;21.50;44.43;99360.19;10380828;28;20469;-60
2023/07/02 07:19:56;;;;;;;10.43;3.25;;;;;;;21.26;44.30;99366.47;10378124;28;20056;-61
2023/07/02 07:24:58;;;;;;;8.23;3.42;;;;;;;22.20;43.91;99356.44;10382026;28;20081;-60
2023/07/02 07:30:00;;;;;;;9.95;3.50;;;;;;;22.55;42.86;99358.44;10381702;28;20045;-60
2023/07/02 07:35:02;;;;;;;10.10;3.50;;;;;;;22.41;43.11;99366.41;10381720;28;20119;-60
2023/07/02 07:40:06;;;;;;;9.68;3.67;;;;;;;22.21;43.09;99360.72;10382014;28;20050;-61
2023/07/02 07:45:09;;;;;;;9.07;3.65;;;;;;;23.13;42.38;99362.13;10381789;28;20771;-60
2023/07/02 07:50:12;;;;;;;8.98;3.72;;;;;;;24.27;40.60;99347.84;10382915;28;20045;-61
2023/07/02 07:55:14;;;;;;;9.40;3.60;;;;;;;23.84;40.41;99354.19;10381246;28;20107;-61
2023/07/02 08:00:17;;;;;;;8.20;3.92;;;;;;;23.33;41.24;99344.56;10382909;28;20084;-61
2023/07/02 08:05:19;;;;;;;8.93;3.78;;;;;;;23.00;41.59;99354.81;10380260;28;20396;-61
2023/07/02 08:10:21;;;;;;;8.07;3.30;;;;;;;24.40;39.55;99352.47;10381942;28;20056;-62
2023/07/02 08:15:23;;;;;;;6.80;3.20;;;;;;;25.26;37.92;99360.03;10383562;28;20061;-61
2023/07/02 08:20:26;;;;;;;6.85;3.47;;;;;;;24.56;39.10;99362.88;10388694;28;20232;-62
2023/07/02 08:25:28;;;;;;;7.55;3.25;;;;;;;24.07;38.95;99362.03;10390843;28;20404;-61
2023/07/02 08:30:30;;;;;;;7.35;3.58;;;;;;;24.27;39.07;99358.53;10391520;28;20045;-61
2023/07/02 08:35:32;;;;;;;7.40;3.20;;;;;;;25.36;37.49;99357.00;10388239;28;20137;-62
2023/07/02 08:40:34;;;;;;;7.25;3.55;;;;;;;25.20;37.43;99363.50;10387593;28;20052;-61
2023/07/02 08:45:36;;;;;;;8.13;3.38;;;;;;;24.17;38.50;99368.72;10389980;28;20290;-62
2023/07/02 08:50:38;;;;;;;8.07;3.20;;;;;;;23.41;39.02;99371.19;10385314;28;20236;-61
2023/07/02 08:55:41;;;;;;;7.55;3.35;;;;;;;22.98;39.71;99369.34;10386013;28;20140;-61
2023/07/02 09:01:09;;;;;;;10.43;3.70;;;;;;;23.28;39.33;99368.31;10391638;28;20515;-61
2023/07/02 09:06:12;;;;;;;7.82;3.53;;;;;;;23.21;39.62;99362.88;10383454;28;20132;-61
2023/07/02 09:11:16;;;;;;;9.85;4.10;;;;;;;22.63;40.32;99386.84;10384829;28;20061;-62
2023/07/02 09:16:22;;;;;;;8.68;4.07;;;;;;;21.96;41.40;99398.38;10380164;28;20089;-61
2023/07/02 09:21:38;;;;;;;8.73;4.00;;;;;;;21.96;41.45;99409.84;10386720;28;20072;-61
2023/07/02 09:26:44;;;;;;;10.13;4.00;;;;;;;22.32;41.26;99404.78;10380829;28;20505;-61
2023/07/02 09:31:47;;;;;;;11.80;5.10;;;;;;;22.61;40.82;99405.69;10386338;28;20634;-61
2023/07/02 09:37:09;;;;;;;11.02;3.90;;;;;;;22.21;41.32;99403.34;10384478;28;20057;-61
2023/07/02 09:42:11;;;;;;;14.02;4.20;;;;;;;22.21;41.65;99403.34;10388264;28;20361;-61
2023/07/02 09:47:17;;;;;;;11.88;4.78;;;;;;;23.17;40.90;99393.59;10388200;28;20132;-61
2023/07/02 09:52:19;;;;;;;10.95;4.78;;;;;;;23.14;40.21;99387.81;10385338;28;20049;-61
2023/07/02 09:57:22;;;;;;;7.72;3.92;;;;;;;24.28;38.60;99375.41;10385161;28;21000;-61
2023/07/02 10:02:24;;;;;;;7.85;3.55;;;;;;;24.60;37.06;99372.16;10384496;28;20061;-61
2023/07/02 10:07:34;;;;;;;7.05;3.63;;;;;;;24.92;35.71;99379.59;10383845;28;20318;-61
2023/07/02 10:12:46;;;;;;;8.25;3.90;;;;;;;25.75;34.63;99379.38;10385895;28;20136;-61
2023/07/02 10:17:56;;;;;;;7.68;3.38;;;;;;;25.70;33.69;99373.81;10380496;28;20092;-62
2023/07/02 10:22:58;;;;;;;7.95;3.05;;;;;;;24.97;35.47;99381.69;10383818;28;20085;-61
2023/07/02 10:28:01;;;;;;;6.88;3.25;;;;;;;25.52;34.76;99362.84;10384835;28;20060;-61
2023/07/02 10:33:15;;;;;;;7.63;3.00;;;;;;;26.64;32.17;99366.53;10384431;28;20053;-61
2023/07/02 10:38:19;;;;;;;7.72;3.10;;;;;;;26.24;33.30;99357.63;10383595;28;20060;-61
2023/07/02 10:43:31;;;;;;;7.68;3.40;;;;;;;25.54;33.24;99367.97;10383865;28;20048;-61
2023/07/02 10:48:34;;;;;;;7.00;3.20;;;;;;;25.69;33.13;99374.81;10378285;28;20321;-61
2023/07/02 10:53:36;;;;;;;8.85;3.03;;;;;;;25.91;31.80;99370.16;10380532;28;20045;-62
2023/07/02 10:58:44;;;;;;;7.93;3.35;;;;;;;25.65;32.08;99365.53;10376431;28;21287;-61
2023/07/02 11:03:59;;;;;;;6.87;2.77;;;;;;;24.61;32.60;99378.34;10379973;28;21187;-61
2023/07/02 11:09:01;;;;;;;7.70;3.15;;;;;;;24.06;34.48;99377.19;10367833;28;20053;-61
2023/07/02 11:14:03;;;;;;;11.20;4.18;;;;;;;23.86;34.32;99391.41;10383235;28;20056;-61
2023/07/02 11:19:08;;;;;;;8.38;3.63;;;;;;;23.97;34.57;99394.41;10380457;28;20055;-62
2023/07/02 11:24:10;;;;;;;5.78;2.90;;;;;;;23.73;33.95;99380.56;10383391;28;20108;-61
2023/07/02 11:29:17;;;;;;;6.88;2.90;;;;;;;23.71;34.08;99386.09;10381918;28;20856;-61
2023/07/02 11:34:23;;;;;;;7.90;3.08;;;;;;;23.68;34.36;99374.94;10382695;28;20628;-61
2023/07/02 11:39:26;;;;;;;7.50;3.55;;;;;;;24.18;34.14;99373.03;10382830;28;20053;-61
2023/07/02 11:44:28;;;;;;;8.10;3.08;;;;;;;24.51;33.71;99369.81;10381641;28;20100;-61
2023/07/02 11:49:30;;;;;;;7.35;2.85;;;;;;;24.67;32.71;99385.56;10383264;28;20049;-61
2023/07/02 11:54:32;;;;;;;7.35;3.08;;;;;;;24.65;31.23;99368.91;10391205;28;20045;-61
2023/07/02 11:59:36;;;;;;;6.10;2.95;;;;;;;25.13;31.01;99369.81;10404237;28;20164;-61
2023/07/02 12:04:39;;;;;;;6.82;2.70;;;;;;;25.07;30.45;99360.75;10391605;28;20136;-61
2023/07/02 12:09:41;;;;;;;6.47;2.75;;;;;;;24.40;31.61;99365.00;10391599;28;20057;-61
2023/07/02 12:14:43;;;;;;;7.45;3.50;;;;;;;24.21;31.60;99374.50;10383289;28;20049;-61
2023/07/02 12:19:45;;;;;;;7.68;3.22;;;;;;;24.59;32.06;99375.03;10387591;28;20141;-61
2023/07/02 12:24:48;;;;;;;11.85;3.42;;;;;;;24.56;31.98;99399.47;10389581;28;20140;-61
2023/07/02 12:29:50;;;;;;;8.07;2.97;;;;;;;24.91;32.27;99393.19;10385089;28;20057;-61
2023/07/02 12:34:52;;;;;;;7.72;2.90;;;;;;;25.04;31.91;99390.56;10389207;28;20049;-61
2023/07/02 12:39:54;;;;;;;6.85;3.30;;;;;;;25.37;31.61;99398.78;10388422;28;20115;-61
2023/07/02 12:44:56;;;;;;;6.22;3.20;;;;;;;25.39;31.20;99394.91;10386666;28;20116;-61
2023/07/02 12:49:58;;;;;;;8.40;3.53;;;;;;;25.25;30.46;99387.81;10388538;28;20148;-62
2023/07/02 12:55:01;;;;;;;9.45;3.60;;;;;;;25.63;30.83;99398.94;10385689;28;20141;-61
2023/07/02 13:00:06;;;;;;;7.55;3.22;;;;;;;26.01;30.48;99399.25;10385160;28;20120;-62
2023/07/02 13:05:08;;;;;;;7.85;3.47;;;;;;;25.74;30.71;99401.84;10366759;28;20037;-61
2023/07/02 13:10:10;;;;;;;9.40;3.65;;;;;;;25.61;30.51;99417.84;10390301;28;20076;-62
2023/07/02 13:15:13;;;;;;;10.02;4.10;;;;;;;25.43;31.03;99414.06;10386776;28;20547;-62
2023/07/02 13:20:15;;;;;;;6.82;3.50;;;;;;;25.69;31.10;99404.28;10387202;28;20038;-61
2023/07/02 13:25:17;;;;;;;8.60;3.80;;;;;;;25.52;31.12;99419.06;10389450;28;20107;-61
2023/07/02 13:30:20;;;;;;;8.32;3.50;;;;;;;26.00;30.99;99406.47;10387250;28;20041;-61
2023/07/02 13:35:22;;;;;;;7.75;3.80;;;;;;;26.00;30.83;99413.69;10387018;28;20132;-61
2023/07/02 13:40:24;;;;;;;7.40;3.15;;;;;;;25.37;30.92;99406.81;10388242;28;20124;-62
2023/07/02 13:45:26;;;;;;;7.68;3.60;;;;;;;25.12;31.83;99417.19;10388280;28;20654;-61
2023/07/02 13:50:28;;;;;;;10.55;3.42;;;;;;;25.37;31.89;99407.66;10388097;28;20048;-62
2023/07/02 13:55:30;;;;;;;11.55;3.67;;;;;;;24.86;32.32;99400.94;10386813;28;20041;-61
2023/07/02 14:00:32;;;;;;;8.20;3.83;;;;;;;24.49;32.26;99417.31;10386610;28;20096;-61
2023/07/02 14:05:37;;;;;;;11.38;4.20;;;;;;;24.32;32.66;99416.75;10389146;28;20037;-61
2023/07/02 14:10:39;;;;;;;8.40;3.50;;;;;;;24.57;32.25;99409.16;10386315;28;20551;-61
2023/07/02 14:15:41;;;;;;;9.25;3.83;;;;;;;24.51;32.59;99423.28;10386694;28;20057;-61
2023/07/02 14:20:43;;;;;;;9.35;3.42;;;;;;;24.63;32.57;99401.19;10387795;28;20065;-61
2023/07/02 14:25:45;;;;;;;8.95;3.63;;;;;;;25.02;32.45;99403.31;10385674;28;20598;-61
2023/07/02 14:30:47;;;;;;;9.75;3.58;;;;;;;24.85;32.70;99401.97;10386594;28;20080;-61
2023/07/02 14:35:49;;;;;;;7.72;3.25;;;;;;;24.88;32.24;99399.72;10386125;28;20898;-61
2023/07/02 14:40:54;;;;;;;7.78;3.70;;;;;;;24.72;32.08;99396.53;10385046;28;20044;-61
2023/07/02 14:45:58;;;;;;;8.10;3.15;;;;;;;24.61;32.07;99394.38;10385211;28;20095;-61
2023/07/02 14:51:02;;;;;;;8.23;3.85;;;;;;;24.73;32.15;99396.38;10384303;28;20505;-61
2023/07/02 14:56:04;;;;;;;9.77;3.60;;;;;;;24.89;32.28;99400.56;10385187;28;20124;-62
2023/07/02 15:01:06;;;;;;;8.20;3.47;;;;;;;24.64;32.14;99399.31;10385284;28;20088;-62
2023/07/02 15:06:12;;;;;;;7.90;3.38;;;;;;;24.54;32.34;99398.84;10382246;28;20077;-61
2023/07/02 15:11:15;;;;;;;6.32;2.88;;;;;;;24.53;32.41;99394.53;10384278;28;20782;-61
2023/07/02 15:16:19;;;;;;;8.77;3.70;;;;;;;24.51;32.56;99400.03;10383023;28;20092;-61
2023/07/02 15:21:23;;;;;;;8.10;3.40;;;;;;;24.46;32.91;99393.63;10374161;28;20547;-61
2023/07/02 15:26:25;;;;;;;7.75;3.63;;;;;;;24.80;32.59;99385.69;10392760;28;20059;-61
2023/07/02 15:31:27;;;;;;;7.30;3.33;;;;;;;24.70;32.59;99385.16;10398296;28;20081;-61
2023/07/02 15:36:35;;;;;;;8.90;3.25;;;;;;;24.49;32.92;99379.88;10395673;28;20056;-61
2023/07/02 15:41:38;;;;;;;7.38;3.20;;;;;;;24.72;32.62;99385.84;10396384;28;20045;-62
2023/07/02 15:46:41;;;;;;;10.45;3.80;;;;;;;24.53;32.98;99384.63;10380043;28;20087;-61
2023/07/02 15:51:43;;;;;;;8.75;3.45;;;;;;;24.55;33.20;99392.47;10392370;28;20521;-62
2023/07/02 15:56:45;;;;;;;11.82;3.50;;;;;;;24.54;33.10;99388.97;10387751;28;20064;-62
2023/07/02 16:01:48;;;;;;;10.82;3.35;;;;;;;24.94;32.45;99390.09;10391218;28;20041;-61
2023/07/02 16:06:50;;;;;;;9.30;3.33;;;;;;;25.01;31.62;99382.94;10388913;28;20080;-61
2023/07/02 16:11:53;;;;;;;9.10;3.90;;;;;;;24.49;32.91;99379.88;10382391;28;20132;-61
2023/07/02 16:16:55;;;;;;;7.38;3.80;;;;;;;24.09;33.17;99387.56;10387612;28;20055;-62
2023/07/02 16:21:57;;;;;;;7.63;3.40;;;;;;;24.39;33.12;99382.88;10385359;28;20050;-61
2023/07/02 16:27:00;;;;;;;8.05;3.15;;;;;;;24.73;32.80;99380.31;10382853;28;20053;-62
2023/07/02 16:32:04;;;;;;;8.40;3.50;;;;;;;24.80;32.78;99369.63;10387413;28;20077;-62
2023/07/02 16:37:07;;;;;;;7.30;3.35;;;;;;;24.41;33.22;99372.00;10384420;28;20087;-62
2023/07/02 16:42:11;;;;;;;6.93;3.33;;;;;;;24.22;33.46;99374.31;10383982;28;20049;-62
2023/07/02 16:47:13;;;;;;;10.00;4.03;;;;;;;24.19;33.15;99369.34;10379229;28;20055;-62
2023/07/02 16:52:15;;;;;;;8.27;3.78;;;;;;;24.04;32.67;99376.56;10383089;28;20061;-60
2023/07/02 16:57:17;;;;;;;8.57;3.50;;;;;;;24.05;33.17;99364.03;10376946;28;20125;-61
2023/07/02 17:02:20;;;;;;;8.07;3.13;;;;;;;23.94;33.10;99368.03;10385004;28;20160;-60
2023/07/02 17:07:23;;;;;;;11.02;3.58;;;;;;;23.69;33.15;99365.94;10380564;28;20060;-61
2023/07/02 17:12:25;;;;;;;9.73;3.92;;;;;;;23.67;33.29;99371.47;10380629;28;20061;-61
2023/07/02 17:17:28;;;;;;;7.20;3.17;;;;;;;24.04;33.15;99375.75;10379434;28;20099;-60
2023/07/02 17:22:31;;;;;;;8.02;3.20;;;;;;;23.87;33.13;99379.69;10378982;28;20586;-61
2023/07/02 17:27:33;;;;;;;8.80;3.22;;;;;;;23.46;33.47;99366.09;10379284;28;20052;-61
2023/07/02 17:32:35;;;;;;;9.15;3.65;;;;;;;23.13;34.01;99367.47;10383263;28;20068;-61
2023/07/02 17:37:37;;;;;;;10.05;3.50;;;;;;;23.22;34.10;99361.03;10380408;28;20260;-60
2023/07/02 17:42:39;;;;;;;9.43;3.63;;;;;;;23.29;33.85;99364.59;10381233;28;20049;-60
2023/07/02 17:47:41;;;;;;;8.18;3.20;;;;;;;23.28;33.92;99370.97;10372062;28;20053;-60
2023/07/02 17:52:44;;;;;;;9.77;3.78;;;;;;;23.20;34.38;99371.06;10377448;28;20056;-61
2023/07/02 17:57:47;;;;;;;9.52;3.28;;;;;;;23.27;34.80;99361.28;10379817;28;20056;-61
2023/07/02 18:02:49;;;;;;;8.27;3.00;;;;;;;23.17;35.16;99360.75;10382682;28;20053;-61
2023/07/02 18:07:51;;;;;;;5.57;2.83;;;;;;;23.12;35.22;99360.50;10379766;28;20057;-61
2023/07/02 18:12:53;;;;;;;8.27;3.40;;;;;;;23.01;35.02;99363.63;10381486;28;20591;-61
2023/07/02 18:17:55;;;;;;;7.47;3.05;;;;;;;22.69;35.09;99368.28;10375507;28;20632;-60
2023/07/02 18:22:58;;;;;;;8.43;3.58;;;;;;;22.53;35.17;99371.13;10378984;28;20057;-60
2023/07/02 18:28:08;;;;;;;7.80;3.00;;;;;;;22.52;35.41;99369.44;10377657;28;20045;-61
2023/07/02 18:33:10;;;;;;;8.68;3.00;;;;;;;22.38;35.49;99369.41;10380205;28;20821;-61
2023/07/02 18:38:14;;;;;;;9.27;4.03;;;;;;;22.21;35.51;99359.94;10376347;28;20478;-60
2023/07/02 18:43:16;;;;;;;7.63;3.55;;;;;;;22.05;35.85;99371.53;10378591;28;20049;-61
2023/07/02 18:48:20;;;;;;;7.55;3.10;;;;;;;21.96;36.14;99369.06;10373562;28;20497;-61
2023/07/02 18:53:24;;;;;;;7.93;3.45;;;;;;;21.82;36.24;99370.69;10377466;28;20087;-61
2023/07/02 18:58:27;;;;;;;8.00;3.10;;;;;;;21.69;36.31;99371.25;10387363;28;20046;-60
2023/07/02 19:03:30;;;;;;;8.35;3.10;;;;;;;21.55;36.63;99372.00;10380815;28;20091;-61
2023/07/02 19:08:32;;;;;;;7.65;3.35;;;;;;;21.49;36.95;99374.53;10377692;28;20089;-60
2023/07/02 19:13:34;;;;;;;8.77;3.30;;;;;;;21.40;36.64;99370.25;10378040;28;20060;-60
2023/07/02 19:18:36;;;;;;;7.05;2.63;;;;;;;21.38;36.86;99375.75;10368851;28;20045;-61
2023/07/02 19:23:39;;;;;;;7.65;3.10;;;;;;;21.24;36.83;99378.25;10373617;28;20049;-61
2023/07/02 19:28:41;;;;;;;7.65;3.65;;;;;;;21.08;36.83;99374.69;10376535;28;20151;-60
2023/07/02 19:33:43;;;;;;;7.13;2.83;;;;;;;20.94;37.28;99379.88;10381055;28;20123;-61
2023/07/02 19:38:45;;;;;;;6.43;2.97;;;;;;;20.78;37.63;99388.72;10376205;28;20049;-61
2023/07/02 19:43:49;;;;;;;7.75;2.90;;;;;;;20.74;37.38;99383.91;10372462;28;20054;-61
2023/07/02 19:48:51;;;;;;;8.77;3.42;;;;;;;20.71;37.35;99384.25;10369652;28;20520;-61
2023/07/02 19:53:53;;;;;;;7.53;3.30;;;;;;;20.78;37.83;99393.22;10376486;28;20095;-61
2023/07/02 19:58:55;;;;;;;8.25;3.10;;;;;;;20.73;37.94;99401.69;10366730;28;20123;-61
2023/07/02 20:03:58;;;;;;;8.48;2.97;;;;;;;20.71;37.85;99406.34;10383405;28;20458;-61
2023/07/02 20:09:00;;;;;;;6.60;2.75;;;;;;;20.62;37.88;99403.88;10378010;28;20115;-61
2023/07/02 20:14:02;;;;;;;9.38;3.28;;;;;;;20.75;37.74;99412.97;10392028;28;20085;-61
2023/07/02 20:19:04;;;;;;;7.97;3.10;;;;;;;20.74;37.91;99405.97;10390144;28;20145;-61
2023/07/02 20:24:06;;;;;;;10.00;3.47;;;;;;;20.70;38.04;99403.84;10388973;28;20501;-61
2023/07/02 20:29:08;;;;;;;10.40;2.95;;;;;;;20.69;38.22;99404.84;10388277;28;20077;-61
2023/07/02 20:34:10;;;;;;;11.68;3.67;;;;;;;20.58;37.97;99411.31;10388126;28;20103;-61
2023/07/02 20:39:13;;;;;;;9.00;3.25;;;;;;;20.58;38.29;99413.97;10380628;28;20052;-61
2023/07/02 20:44:15;;;;;;;10.35;3.10;;;;;;;20.51;38.01;99410.31;10383036;28;20049;-61
2023/07/02 20:49:20;;;;;;;8.48;3.38;;;;;;;20.45;38.22;99411.00;10386249;28;20147;-61
2023/07/02 20:54:22;;;;;;;9.93;3.15;;;;;;;20.34;38.11;99421.94;10380419;28;20072;-61
2023/07/02 20:59:25;;;;;;;8.02;3.10;;;;;;;20.12;38.57;99422.59;10382461;28;20052;-61
2023/07/02 21:04:27;;;;;;;8.20;3.22;;;;;;;19.98;38.80;99433.84;10388034;28;20136;-61
2023/07/02 21:09:29;;;;;;;14.35;4.28;;;;;;;19.99;38.88;99430.22;10388396;28;20050;-61
2023/07/02 21:14:31;;;;;;;6.03;2.50;;;;;;;20.05;38.99;99437.53;10384513;28;20472;-61
2023/07/02 21:19:35;;;;;;;7.25;2.97;;;;;;;19.99;39.23;99441.66;10385598;28;20053;-61
2023/07/02 21:24:38;;;;;;;11.98;2.85;;;;;;;19.92;39.49;99448.63;10388201;28;20049;-61
2023/07/02 21:29:40;;;;;;;8.43;3.25;;;;;;;19.87;39.64;99455.38;10385256;28;21043;-61
2023/07/02 21:34:42;;;;;;;8.23;2.90;;;;;;;19.78;40.14;99454.53;10384014;28;20541;-61
2023/07/02 21:39:44;;;;;;;6.82;2.70;;;;;;;19.76;40.23;99456.50;10385940;28;20063;-61
2023/07/02 21:44:46;;;;;;;8.00;3.00;;;;;;;19.71;40.13;99463.25;10385736;28;20557;-61
2023/07/02 21:49:48;;;;;;;5.72;2.67;;;;;;;19.67;40.41;99462.75;10385881;28;20469;-61
2023/07/02 21:54:50;;;;;;;7.82;2.92;;;;;;;19.64;40.74;99468.41;10401164;28;20081;-61
2023/07/02 21:59:52;;;;;;;7.75;3.25;;;;;;;19.58;40.41;99462.91;10386906;28;20973;-61
2023/07/02 22:04:54;;;;;;;8.38;2.95;;;;;;;19.54;40.57;99470.34;10385320;28;20042;-61
2023/07/02 22:09:56;;;;;;;8.07;2.90;;;;;;;19.44;40.39;99461.66;10386377;28;20162;-61
2023/07/02 22:14:58;;;;;;;6.90;2.78;;;;;;;19.40;41.00;99458.50;10383085;28;20041;-61
2023/07/02 22:20:04;;;;;;;9.20;2.78;;;;;;;19.33;41.04;99462.81;10383992;28;20050;-61
2023/07/02 22:25:10;;;;;;;7.30;2.70;;;;;;;19.09;41.61;99467.13;10384366;28;20152;-61
2023/07/02 22:30:12;;;;;;;7.53;2.97;;;;;;;18.89;41.62;99469.13;10386206;28;21194;-61
2023/07/02 22:35:15;;;;;;;5.95;2.63;;;;;;;18.77;41.98;99461.59;10381729;28;20124;-61
2023/07/02 22:40:17;;;;;;;7.30;3.28;;;;;;;18.50;42.01;99462.53;10385888;28;20049;-61
2023/07/02 22:45:19;;;;;;;5.75;2.78;;;;;;;18.34;42.44;99460.56;10383722;28;20128;-61
2023/07/02 22:50:21;;;;;;;9.25;3.55;;;;;;;18.19;42.22;99453.28;10385480;28;20444;-61
2023/07/02 22:55:28;;;;;;;7.82;2.88;;;;;;;18.10;42.83;99451.53;10382983;28;20046;-61
2023/07/02 23:00:30;;;;;;;6.72;3.20;;;;;;;18.18;42.60;99452.44;10386482;28;21134;-61
2023/07/02 23:05:32;;;;;;;8.85;2.70;;;;;;;18.16;42.82;99440.34;10383122;28;20045;-61
2023/07/02 23:10:34;;;;;;;8.32;2.80;;;;;;;17.99;42.71;99442.03;10382523;28;20130;-61
2023/07/02 23:15:36;;;;;;;10.65;3.22;;;;;;;17.84;42.99;99438.22;10384016;28;20087;-60
2023/07/02 23:20:38;;;;;;;7.93;2.65;;;;;;;17.72;43.16;99442.91;10384720;28;20144;-61
2023/07/02 23:25:45;;;;;;;7.95;3.00;;;;;;;17.55;43.44;99445.50;10382482;28;20155;-61